Terminal Aerodrome Forecast
Issued by NWS

Current Version | Previous Version | Text Only | Print | Product List | Glossary On
Versions: 1 2 3 4 5 6 7 8 9 10 11 12 13 14 15 16 17 18 19 20 21 22 23 24 25 26 27 28 29 30
000
FTUS41 KCTP 121833 AAA
TAFJST
TAF AMD
KJST 121833Z 1219/1318 30014KT 1/4SM SN FZFG FEW007 BKN014 OVC035
      TEMPO 1219/1222 29016G25KT 1SM -SN BLSN OVC008
     FM131000 28015G25KT 2SM BLSN OVC015
     FM131400 28021G28KT 5SM -SN OVC015
     FM131500 28019G27KT 6SM -SN OVC025=

USA.gov is the U.S. government's official web portal to all federal, state and local government web resources and services.